createdAt,value
2022-10-18T00:02:35.269Z,8.45
2022-10-18T00:05:23.084Z,7.85
2022-10-18T00:08:11.049Z,8.38
2022-10-18T00:10:58.925Z,10.25
2022-10-18T00:13:46.896Z,10.40
2022-10-18T00:16:34.705Z,10.50
2022-10-18T00:19:25.894Z,12.68
2022-10-18T00:22:16.581Z,12.48
2022-10-18T00:25:05.782Z,12.18
2022-10-18T00:27:53.646Z,12.38
2022-10-18T00:30:41.774Z,11.68
2022-10-18T00:33:29.812Z,13.60
2022-10-18T00:36:18.570Z,13.70
2022-10-18T00:39:08.262Z,12.80
2022-10-18T00:41:56.169Z,13.15
2022-10-18T00:44:43.901Z,11.35
2022-10-18T00:47:33.063Z,13.60
2022-10-18T00:50:22.578Z,13.52
2022-10-18T00:53:16.728Z,16.23
2022-10-18T00:56:04.928Z,16.33
2022-10-18T00:58:53.227Z,18.38
2022-10-18T01:01:41.214Z,17.75
2022-10-18T01:04:29.323Z,19.90
2022-10-18T01:07:26.328Z,22.05
2022-10-18T01:10:19.951Z,19.33
2022-10-18T01:13:13.724Z,18.05
2022-10-18T01:16:39.423Z,19.40
2022-10-18T01:19:47.489Z,21.10
2022-10-18T01:22:39.465Z,23.38
2022-10-18T01:25:57.504Z,20.15
2022-10-18T01:29:42.127Z,21.50
2022-10-18T01:32:41.484Z,21.58
2022-10-18T01:35:37.652Z,22.00
2022-10-18T01:38:26.513Z,24.40
2022-10-18T01:41:17.297Z,22.05
2022-10-18T01:44:08.761Z,24.30
2022-10-18T01:46:58.311Z,24.88
2022-10-18T01:49:46.719Z,21.40
2022-10-18T01:52:34.785Z,23.50
2022-10-18T01:55:33.693Z,22.48
2022-10-18T01:58:33.117Z,23.67
2022-10-18T02:01:42.973Z,21.50
2022-10-18T02:05:04.218Z,23.73
2022-10-18T02:08:12.218Z,26.90
2022-10-18T02:11:16.167Z,22.98
2022-10-18T02:14:09.692Z,25.42
2022-10-18T02:17:00.755Z,24.05
2022-10-18T02:19:54.863Z,26.05
2022-10-18T02:22:45.937Z,22.00
2022-10-18T02:25:35.728Z,23.92
2022-10-18T02:31:39.744Z,24.98
2022-10-18T02:34:40.607Z,27.50
2022-10-18T02:37:35.207Z,28.05
2022-10-18T02:40:23.464Z,29.90
2022-10-18T02:43:11.268Z,27.90
2022-10-18T02:45:59.190Z,26.50
2022-10-18T02:48:47.232Z,24.95
2022-10-18T02:51:35.103Z,28.75
2022-10-18T02:54:23.680Z,29.58
2022-10-18T02:57:11.463Z,30.35
2022-10-18T02:59:59.327Z,28.67
2022-10-18T03:02:47.181Z,33.70
2022-10-18T03:05:35.028Z,32.78
2022-10-18T03:08:22.934Z,29.15
2022-10-18T03:11:10.936Z,33.50
2022-10-18T03:13:58.739Z,28.73
2022-10-18T03:16:46.570Z,28.50
2022-10-18T03:19:34.405Z,26.65
2022-10-18T03:22:22.314Z,23.90
2022-10-18T03:25:10.128Z,26.60
2022-10-18T03:27:57.896Z,21.90
2022-10-18T03:30:45.805Z,26.17
2022-10-18T03:33:34.050Z,25.65
2022-10-18T03:36:22.065Z,34.83
2022-10-18T03:39:12.575Z,12.32
2022-10-18T03:42:00.507Z,4.78
2022-10-18T03:44:48.460Z,3.85
2022-10-18T03:47:36.403Z,3.40
2022-10-18T03:50:24.467Z,6.38
2022-10-18T03:53:12.589Z,6.68
2022-10-18T03:56:00.404Z,10.80
2022-10-18T03:58:48.298Z,7.68
2022-10-18T04:01:36.252Z,4.55
2022-10-18T04:04:24.209Z,5.68
2022-10-18T04:07:12.029Z,4.40
2022-10-18T04:10:00.462Z,4.38
2022-10-18T04:12:48.516Z,3.92
2022-10-18T04:15:36.397Z,3.15
2022-10-18T04:18:24.276Z,3.78
2022-10-18T04:21:12.082Z,2.88
2022-10-18T04:23:59.968Z,2.67
2022-10-18T04:26:48.033Z,2.85
2022-10-18T04:29:36.271Z,3.10
2022-10-18T04:32:24.168Z,3.33
2022-10-18T04:35:12.037Z,2.70
2022-10-18T04:37:59.858Z,2.50
2022-10-18T04:40:47.690Z,3.08
2022-10-18T04:43:35.611Z,3.28
2022-10-18T04:46:23.573Z,4.05
2022-10-18T04:49:11.457Z,4.13
2022-10-18T04:51:59.415Z,3.78
2022-10-18T04:54:47.498Z,3.97
2022-10-18T04:57:35.428Z,2.88
2022-10-18T05:00:23.574Z,3.17
2022-10-18T05:03:13.982Z,3.58
2022-10-18T05:06:02.831Z,3.83
2022-10-18T05:08:51.340Z,3.78
2022-10-18T05:11:41.987Z,3.40
2022-10-18T05:14:29.779Z,4.80
2022-10-18T05:17:17.655Z,4.70
2022-10-18T05:20:06.110Z,5.22
2022-10-18T05:22:53.983Z,4.85
2022-10-18T05:25:43.089Z,6.10
2022-10-18T05:28:39.669Z,5.40
2022-10-18T05:31:28.645Z,3.58
2022-10-18T05:34:18.068Z,3.97
2022-10-18T05:37:06.990Z,5.32
2022-10-18T05:40:00.584Z,3.05
2022-10-18T05:42:52.152Z,4.10
2022-10-18T05:45:40.181Z,3.75
2022-10-18T05:48:28.446Z,3.40
2022-10-18T05:51:16.342Z,3.88
2022-10-18T05:54:06.764Z,3.25
2022-10-18T05:56:54.838Z,4.68
2022-10-18T05:59:43.735Z,5.10
2022-10-18T06:02:31.929Z,4.22
2022-10-18T06:05:20.065Z,5.45
2022-10-18T06:08:10.271Z,3.97
2022-10-18T06:10:58.441Z,4.03
2022-10-18T06:13:55.052Z,4.45
2022-10-18T06:16:42.891Z,4.10
2022-10-18T06:19:41.368Z,6.63
2022-10-18T06:22:34.226Z,5.57
2022-10-18T06:25:22.569Z,8.35
2022-10-18T06:28:12.184Z,5.50
2022-10-18T06:31:00.390Z,5.45
2022-10-18T06:33:49.575Z,5.78
2022-10-18T06:36:37.434Z,5.10
2022-10-18T06:39:26.087Z,6.35
2022-10-18T06:42:14.798Z,6.65
2022-10-18T06:45:05.667Z,6.47
2022-10-18T06:47:53.540Z,7.10
2022-10-18T06:50:41.647Z,8.55
2022-10-18T06:53:32.913Z,7.28
2022-10-18T06:56:21.024Z,6.10
2022-10-18T06:59:11.662Z,7.68
2022-10-18T07:02:01.750Z,9.43
2022-10-18T07:04:50.164Z,12.30
2022-10-18T07:07:39.693Z,14.05
2022-10-18T07:10:34.089Z,16.42
2022-10-18T07:13:37.830Z,13.45
2022-10-18T07:16:25.845Z,11.27
2022-10-18T07:19:15.242Z,13.98
2022-10-18T07:22:03.157Z,13.77
2022-10-18T07:24:51.213Z,11.98
2022-10-18T07:27:41.388Z,10.88
2022-10-18T07:30:29.297Z,8.85
2022-10-18T07:33:17.399Z,14.07
2022-10-18T07:36:10.039Z,13.60
2022-10-18T07:38:58.563Z,17.30
2022-10-18T07:41:47.842Z,17.00
2022-10-18T07:44:39.456Z,20.00
2022-10-18T07:47:32.806Z,18.70
2022-10-18T07:50:26.385Z,18.08
2022-10-18T07:53:14.582Z,19.67
2022-10-18T07:56:11.729Z,21.63
2022-10-18T07:58:59.800Z,16.98
2022-10-18T08:01:48.174Z,17.05
2022-10-18T08:04:36.084Z,13.80
2022-10-18T08:07:24.145Z,11.45
2022-10-18T08:10:12.153Z,11.25
2022-10-18T08:13:00.213Z,13.93
2022-10-18T08:15:48.473Z,8.25
2022-10-18T08:18:37.846Z,7.85
2022-10-18T08:21:27.075Z,8.93
2022-10-18T08:24:15.080Z,9.85
2022-10-18T08:27:03.718Z,7.82
2022-10-18T08:29:52.053Z,6.90
2022-10-18T08:32:40.354Z,7.75
2022-10-18T08:35:28.518Z,4.60
2022-10-18T08:38:18.882Z,4.47
2022-10-18T08:41:57.943Z,4.22
2022-10-18T08:44:49.729Z,3.53
2022-10-18T08:47:49.384Z,12.02
2022-10-18T08:50:38.784Z,9.98
2022-10-18T08:53:43.567Z,4.72
2022-10-18T08:56:33.631Z,4.90
2022-10-18T08:59:24.731Z,4.40
2022-10-18T09:02:31.113Z,3.25
2022-10-18T09:05:32.407Z,3.40
2022-10-18T09:08:35.986Z,3.70
2022-10-18T09:11:35.681Z,3.30
2022-10-18T09:14:53.308Z,3.08
2022-10-18T09:18:17.699Z,2.85
2022-10-18T09:21:24.461Z,2.92
2022-10-18T09:26:37.657Z,2.10
2022-10-18T09:29:38.696Z,2.30
2022-10-18T09:32:47.511Z,2.15
2022-10-18T09:36:45.145Z,2.20
2022-10-18T09:40:23.583Z,1.80
2022-10-18T10:24:43.690Z,1.73
2022-10-18T10:28:30.256Z,1.40
2022-10-18T10:31:40.006Z,1.40
2022-10-18T10:35:04.797Z,1.25
2022-10-18T10:41:52.874Z,0.98
2022-10-18T10:50:21.844Z,1.60
2022-10-18T11:00:56.631Z,1.40
2022-10-18T11:03:55.911Z,1.60
2022-10-18T11:09:32.228Z,1.42
2022-10-18T13:12:35.525Z,1.00
2022-10-18T16:42:48.514Z,2.78
2022-10-18T16:48:46.427Z,3.40
2022-10-18T16:51:44.915Z,4.72
2022-10-18T16:54:38.665Z,3.17
2022-10-18T16:57:34.775Z,2.92
2022-10-18T17:00:24.961Z,3.25
2022-10-18T17:03:25.315Z,3.15
2022-10-18T17:06:24.487Z,4.30
2022-10-18T17:09:20.243Z,5.38
2022-10-18T17:12:14.814Z,5.97
2022-10-18T17:15:51.096Z,5.40
2022-10-18T17:18:54.818Z,6.60
2022-10-18T17:24:48.494Z,5.50
2022-10-18T17:27:36.953Z,5.78
2022-10-18T17:30:29.928Z,6.72
2022-10-18T17:33:20.384Z,6.90
2022-10-18T17:36:35.908Z,5.88
2022-10-18T17:39:32.428Z,6.55
2022-10-18T17:42:23.921Z,6.13
2022-10-18T17:45:12.818Z,6.32
2022-10-18T17:48:05.651Z,6.22
2022-10-18T17:50:56.342Z,5.90
2022-10-18T17:54:11.990Z,5.53
2022-10-18T17:57:24.688Z,6.38
2022-10-18T18:00:50.700Z,6.55
2022-10-18T18:04:08.926Z,7.30
2022-10-18T18:07:23.152Z,5.85
2022-10-18T18:10:25.136Z,6.55
2022-10-18T18:13:30.103Z,7.00
2022-10-18T18:16:29.567Z,7.70
2022-10-18T18:19:21.588Z,7.20
2022-10-18T18:22:26.167Z,7.20
2022-10-18T18:25:16.754Z,7.90
2022-10-18T18:28:47.599Z,7.63
2022-10-18T18:31:41.255Z,8.30
2022-10-18T18:34:36.110Z,8.65
2022-10-18T18:37:24.441Z,7.63
2022-10-18T18:40:18.481Z,9.07
2022-10-18T18:43:35.828Z,9.80
2022-10-18T18:46:40.811Z,9.55
2022-10-18T18:49:32.615Z,9.77
2022-10-18T18:52:28.289Z,10.70
2022-10-18T18:55:22.278Z,10.73
2022-10-18T18:58:16.088Z,11.85
2022-10-18T19:01:19.706Z,11.80
2022-10-18T19:04:17.755Z,11.33
2022-10-18T19:07:14.296Z,10.48
2022-10-18T19:10:06.221Z,11.60
2022-10-18T19:12:55.698Z,12.27
2022-10-18T19:15:50.113Z,13.98
2022-10-18T19:18:38.628Z,12.50
2022-10-18T19:21:34.127Z,12.85
2022-10-18T19:24:25.707Z,13.95
2022-10-18T19:27:24.570Z,11.98
2022-10-18T19:30:16.300Z,13.60
2022-10-18T19:33:15.558Z,12.70
2022-10-18T19:36:18.620Z,14.02
2022-10-18T19:39:13.346Z,12.05
2022-10-18T19:42:06.488Z,13.85
2022-10-18T19:44:57.439Z,14.65
2022-10-18T19:47:49.756Z,14.30
2022-10-18T19:50:38.333Z,16.15
2022-10-18T19:53:34.383Z,14.10
2022-10-18T19:56:55.011Z,15.05
2022-10-18T19:59:57.039Z,14.32
2022-10-18T20:02:50.787Z,14.55
2022-10-18T20:05:45.961Z,13.60
2022-10-18T20:08:44.227Z,14.48
2022-10-18T20:11:49.274Z,15.40
2022-10-18T20:14:37.638Z,14.73
2022-10-18T20:17:45.748Z,15.77
2022-10-18T20:20:43.342Z,16.65
2022-10-18T20:23:40.599Z,15.18
2022-10-18T20:26:29.024Z,16.48
2022-10-18T20:29:18.779Z,16.75
2022-10-18T20:32:14.023Z,15.32
2022-10-18T20:35:02.794Z,15.57
2022-10-18T20:37:51.138Z,16.17
2022-10-18T20:40:39.998Z,15.65
2022-10-18T20:43:31.426Z,16.50
2022-10-18T20:46:21.616Z,15.38
2022-10-18T20:49:16.392Z,16.65
2022-10-18T20:52:05.484Z,17.02
2022-10-18T20:54:54.413Z,16.80
2022-10-18T20:57:45.038Z,18.45
2022-10-18T21:00:36.455Z,18.13
2022-10-18T21:03:24.960Z,18.20
2022-10-18T21:06:18.774Z,19.08
2022-10-18T21:09:18.947Z,20.05
2022-10-18T21:12:07.226Z,18.90
2022-10-18T21:14:55.670Z,19.98
2022-10-18T21:17:52.730Z,20.38
2022-10-18T21:20:41.067Z,19.75
2022-10-18T21:23:29.158Z,19.67
2022-10-18T21:26:27.077Z,18.70
2022-10-18T21:29:21.578Z,19.25
2022-10-18T21:32:18.304Z,19.90
2022-10-18T21:35:07.197Z,18.20
2022-10-18T21:37:55.720Z,19.83
2022-10-18T21:40:49.204Z,18.33
2022-10-18T21:43:44.982Z,20.23
2022-10-18T21:46:33.377Z,18.42
2022-10-18T21:49:25.275Z,18.73
2022-10-18T21:52:15.862Z,19.80
2022-10-18T21:55:08.036Z,18.10
2022-10-18T21:57:56.362Z,17.08
2022-10-18T22:00:47.465Z,16.83
2022-10-18T22:03:40.226Z,16.48
2022-10-18T22:09:30.099Z,15.45
2022-10-18T22:12:18.485Z,11.98
2022-10-18T22:15:10.078Z,13.10
2022-10-18T22:18:05.432Z,15.45
2022-10-18T22:21:04.245Z,13.50
2022-10-18T22:24:05.355Z,13.45
2022-10-18T22:26:59.323Z,13.63
2022-10-18T22:29:47.607Z,14.48
2022-10-18T22:32:43.099Z,14.30
2022-10-18T22:35:34.694Z,15.05
2022-10-18T22:38:23.363Z,14.68
2022-10-18T22:41:12.846Z,16.58
2022-10-18T22:44:03.532Z,15.40
2022-10-18T22:47:00.281Z,15.65
2022-10-18T22:49:48.611Z,16.52
2022-10-18T22:52:36.844Z,17.98
2022-10-18T22:55:38.074Z,18.00
2022-10-18T22:58:26.768Z,17.15
2022-10-18T23:01:22.154Z,19.15
2022-10-18T23:04:17.952Z,19.33
2022-10-18T23:07:06.600Z,19.35
2022-10-18T23:09:55.498Z,19.67
2022-10-18T23:12:44.527Z,19.58
2022-10-18T23:15:34.232Z,19.70
2022-10-18T23:18:25.455Z,21.00
2022-10-18T23:21:17.500Z,20.85
2022-10-18T23:24:09.321Z,21.23
2022-10-18T23:26:57.646Z,21.10
2022-10-18T23:29:46.577Z,20.58
2022-10-18T23:32:35.839Z,19.90
2022-10-18T23:35:33.304Z,19.02
2022-10-18T23:38:26.146Z,20.88
2022-10-18T23:41:17.269Z,21.27
2022-10-18T23:44:11.424Z,20.02
2022-10-18T23:50:03.141Z,21.45
2022-10-18T23:52:55.088Z,20.83
2022-10-18T23:56:01.221Z,21.35
2022-10-18T23:58:53.152Z,21.33
